Time;durP1;ratioP1;P1;durP2;ratioP2;P2;SDS_P1;SDS_P2;PMS_P1;PMS_P2;Temp;Humidity;BMP_temperature;BMP_pressure;BME280_temperature;BME280_humidity;BME280_pressure;Samples;Min_cycle;Max_cycle;Signal;HPM_P1;HPM_P2
2022/03/25 05:15:45;;;;;;;30.95;13.65;;;;;;;2.09;71.17;101388.16;5543294;32;259510;-84
2022/03/25 05:18:48;;;;;;;25.08;12.68;;;;;;;2.15;70.28;101393.41;5532184;32;34845;-83
2022/03/25 05:21:50;;;;;;;27.62;12.88;;;;;;;2.29;68.56;101396.06;5531851;32;34395;-83
2022/03/25 05:24:55;;;;;;;28.65;13.13;;;;;;;2.51;68.08;101391.69;5535727;32;34191;-83
2022/03/25 05:27:58;;;;;;;30.10;13.48;;;;;;;2.62;67.52;101391.69;5538181;32;34675;-83
2022/03/25 05:31:01;;;;;;;32.00;13.48;;;;;;;2.75;66.87;101391.69;5539023;32;34921;-83
2022/03/25 05:34:04;;;;;;;30.90;13.70;;;;;;;2.85;67.08;101390.81;5540824;32;34635;-83
2022/03/25 05:37:07;;;;;;;25.50;13.07;;;;;;;3.06;64.90;101389.91;5541171;32;35032;-83
2022/03/25 05:40:11;;;;;;;26.12;12.82;;;;;;;3.33;63.98;101395.94;5540781;32;34882;-83
2022/03/25 05:43:14;;;;;;;28.42;14.45;;;;;;;3.47;63.40;101401.12;5535151;32;35166;-83
2022/03/25 05:46:17;;;;;;;24.80;13.13;;;;;;;3.63;62.68;101408.97;5531851;32;34338;-83
2022/03/25 05:49:20;;;;;;;24.98;12.95;;;;;;;3.78;61.94;101408.88;5535533;32;34185;-83
2022/03/25 05:52:24;;;;;;;30.10;15.38;;;;;;;4.01;61.64;101405.28;5531289;32;34649;-83
2022/03/25 05:55:27;;;;;;;32.13;14.73;;;;;;;4.31;60.17;101410.31;5536625;32;34707;-84
2022/03/25 05:58:33;;;;;;;22.90;13.75;;;;;;;5.04;58.41;101404.47;5531112;32;34930;-84
2022/03/25 06:01:36;;;;;;;28.02;14.90;;;;;;;6.66;54.51;101409.38;5534339;32;34709;-84
2022/03/25 06:04:40;;;;;;;30.98;14.90;;;;;;;8.57;47.64;101397.59;5539380;32;34787;-84
2022/03/25 06:07:44;;;;;;;27.77;14.57;;;;;;;10.24;43.69;101395.53;5538057;32;35131;-83
2022/03/25 06:10:49;;;;;;;31.15;16.70;;;;;;;11.84;38.67;101394.44;5528797;32;33902;-83
2022/03/25 06:13:52;;;;;;;25.12;14.77;;;;;;;10.86;39.84;101396.19;5537128;32;34378;-82
2022/03/25 06:16:55;;;;;;;30.67;16.30;;;;;;;14.28;34.78;101393.69;5550954;32;34103;-82
2022/03/25 06:19:58;;;;;;;28.02;16.30;;;;;;;14.14;32.77;101389.91;5550906;32;34276;-83
2022/03/25 06:23:02;;;;;;;34.63;18.95;;;;;;;15.05;32.09;101394.31;5552265;32;34189;-83
2022/03/25 06:26:07;;;;;;;34.20;18.65;;;;;;;13.12;33.69;101397.25;5550046;32;34073;-83
2022/03/25 06:29:10;;;;;;;32.72;20.30;;;;;;;14.36;31.57;101402.22;5546263;32;34353;-83
2022/03/25 06:32:13;;;;;;;32.95;20.83;;;;;;;15.63;29.48;101400.16;5541464;32;34042;-82
2022/03/25 06:35:16;;;;;;;35.78;21.77;;;;;;;15.26;30.27;101396.81;5539582;32;34134;-83
2022/03/25 06:38:19;;;;;;;37.33;23.17;;;;;;;17.27;27.49;101400.66;5536561;32;34472;-82
2022/03/25 06:41:27;;;;;;;37.38;21.95;;;;;;;18.27;26.33;101397.97;5526765;32;33936;-83
2022/03/25 06:44:29;;;;;;;37.75;21.50;;;;;;;16.69;27.35;101399.59;5538321;32;35157;-83
2022/03/25 06:47:32;;;;;;;37.28;21.12;;;;;;;16.53;27.27;101399.63;5538038;32;34743;-83
2022/03/25 06:50:37;;;;;;;40.28;22.37;;;;;;;16.64;27.51;101396.31;5544569;32;34095;-81
2022/03/25 06:53:41;;;;;;;34.58;19.37;;;;;;;18.07;25.81;101389.41;5535611;32;33736;-82
2022/03/25 06:56:44;;;;;;;45.97;22.05;;;;;;;20.37;23.26;101393.25;5533855;32;33948;-83
2022/03/25 06:59:47;;;;;;;42.60;21.75;;;;;;;18.61;24.38;101400.22;5534828;32;34074;-84
2022/03/25 07:02:52;;;;;;;39.10;20.58;;;;;;;18.14;25.14;101389.84;5544446;32;32453;-87
2022/03/25 07:05:56;;;;;;;30.25;20.10;;;;;;;18.04;25.49;101403.84;5544132;32;34805;-89
2022/03/25 07:08:59;;;;;;;38.63;20.67;;;;;;;18.36;25.00;101397.34;5541141;32;34325;-90
2022/03/25 07:12:09;;;;;;;35.42;20.83;;;;;;;18.41;24.90;101397.88;5529853;32;33911;-85
2022/03/25 07:15:15;;;;;;;38.35;21.05;;;;;;;20.47;22.37;101399.69;5519778;32;33694;-85
2022/03/25 07:18:23;;;;;;;35.50;20.12;;;;;;;20.27;22.91;101410.09;5530635;32;34069;-84
2022/03/25 07:21:38;;;;;;;34.50;21.05;;;;;;;20.07;23.30;101414.31;5537729;32;32765;-84
2022/03/25 07:24:41;;;;;;;31.65;20.67;;;;;;;19.56;24.07;101410.72;5532281;32;35270;-84
2022/03/25 07:27:46;;;;;;;33.85;21.25;;;;;;;20.44;23.06;101411.56;5520343;32;34944;-84
2022/03/25 07:30:50;;;;;;;35.70;20.73;;;;;;;19.09;24.49;101421.16;5510270;32;34145;-86
2022/03/25 07:33:54;;;;;;;32.55;19.50;;;;;;;21.05;22.39;101420.47;5527609;32;33878;-87
2022/03/25 07:36:58;;;;;;;31.75;17.77;;;;;;;22.29;20.93;101420.56;5543963;32;35241;-87
2022/03/25 07:40:00;;;;;;;35.95;16.90;;;;;;;23.29;19.80;101423.00;5527723;32;35304;-87
2022/03/25 07:43:19;;;;;;;30.88;16.92;;;;;;;23.90;18.99;101429.41;5552435;26;34266;31
2022/03/25 07:46:23;;;;;;;25.40;16.60;;;;;;;25.44;17.53;101419.75;5585301;27;34632;-84
2022/03/25 07:49:26;;;;;;;18.65;13.40;;;;;;;25.70;17.38;101424.56;5490095;32;35240;-84
2022/03/25 07:52:29;;;;;;;25.33;14.00;;;;;;;27.46;15.60;101423.22;5487221;32;35261;-83
2022/03/25 07:55:35;;;;;;;30.60;14.98;;;;;;;28.04;14.91;101425.31;5497652;32;34261;-85
2022/03/25 07:58:43;;;;;;;22.52;13.55;;;;;;;30.30;13.61;101420.09;5469936;32;34086;-85
2022/03/25 08:02:03;;;;;;;21.58;11.85;;;;;;;31.82;11.57;101422.03;5496137;32;34331;-84
2022/03/25 08:05:09;;;;;;;19.77;10.37;;;;;;;30.73;11.84;101413.28;5488210;32;34110;-83
2022/03/25 08:08:13;;;;;;;19.55;10.85;;;;;;;29.94;12.89;101417.91;5472663;32;33851;-82
2022/03/25 08:14:38;;;;;;;18.05;11.27;;;;;;;28.41;13.46;101418.56;5476539;32;36057;-88
2022/03/25 08:17:54;;;;;;;15.70;10.38;;;;;;;30.04;12.04;101402.13;5486048;32;35035;-88
2022/03/25 08:20:58;;;;;;;16.73;10.07;;;;;;;28.87;12.87;101412.63;5482128;32;33717;-86
2022/03/25 08:28:12;;;;;;;14.77;10.27;;;;;;;28.27;14.05;101411.94;5483589;32;35234;-85
2022/03/25 08:31:51;;;;;;;22.52;10.20;;;;;;;29.40;12.98;101403.09;5479247;32;35513;-86
2022/03/25 08:35:07;;;;;;;15.02;9.70;;;;;;;26.35;16.12;101411.88;5468885;32;34394;-86
2022/03/25 08:38:12;;;;;;;17.67;10.38;;;;;;;23.91;17.01;101408.56;5482867;32;32900;-88
2022/03/25 08:41:15;;;;;;;16.50;9.82;;;;;;;23.09;17.84;101409.34;5463056;32;34399;-87
2022/03/25 08:44:18;;;;;;;20.67;10.75;;;;;;;22.25;18.16;101418.22;5461220;32;34023;-85
2022/03/25 08:47:24;;;;;;;17.92;10.02;;;;;;;21.64;18.81;101406.87;5463995;32;34157;-84
2022/03/25 08:50:28;;;;;;;20.33;10.63;;;;;;;20.99;19.40;101411.03;5452695;32;35329;-87
2022/03/25 08:53:32;;;;;;;19.17;10.20;;;;;;;21.20;19.56;101410.31;5468029;32;34181;-89
2022/03/25 08:56:36;;;;;;;15.63;10.38;;;;;;;21.35;19.35;101399.28;5480096;32;35223;-89
2022/03/25 08:59:39;;;;;;;18.65;10.75;;;;;;;20.83;19.85;101403.22;5488054;32;33432;-87
2022/03/25 09:02:44;;;;;;;19.40;11.02;;;;;;;20.39;20.51;101404.78;5486741;32;35139;-85
2022/03/25 09:05:51;;;;;;;17.77;10.30;;;;;;;20.12;20.39;101412.09;5472456;32;34283;-82
2022/03/25 09:08:59;;;;;;;21.00;11.30;;;;;;;19.82;20.51;101410.69;5499272;32;33719;-82
2022/03/25 09:12:03;;;;;;;18.27;10.45;;;;;;;20.43;20.13;101409.81;5479500;32;33863;-83
2022/03/25 09:15:09;;;;;;;18.55;11.02;;;;;;;20.01;20.74;101404.81;5480964;32;35332;-83
2022/03/25 09:18:12;;;;;;;17.12;9.40;;;;;;;20.46;20.98;101401.50;5482022;32;34284;-85
2022/03/25 09:21:16;;;;;;;19.65;10.18;;;;;;;20.00;20.81;101404.94;5472579;32;34079;-84
2022/03/25 09:24:26;;;;;;;21.77;10.43;;;;;;;20.42;20.74;101397.31;5481380;32;34770;-84
2022/03/25 09:27:30;;;;;;;17.40;9.98;;;;;;;20.60;20.79;101395.06;5481392;32;34645;-84
2022/03/25 09:30:33;;;;;;;15.40;9.77;;;;;;;21.15;20.88;101388.22;5480800;32;34141;-83
2022/03/25 09:33:38;;;;;;;19.73;9.98;;;;;;;20.94;20.28;101388.94;5479451;32;33919;-83
2022/03/25 09:36:41;;;;;;;15.23;9.95;;;;;;;21.05;20.83;101392.63;5479355;32;34451;-85
2022/03/25 09:39:45;;;;;;;19.87;9.52;;;;;;;21.18;19.76;101387.13;5482793;32;35036;-84
2022/03/25 09:42:52;;;;;;;24.58;9.93;;;;;;;21.72;19.72;101379.31;5476162;32;34080;-83
2022/03/25 09:45:55;;;;;;;17.65;9.38;;;;;;;22.06;19.58;101377.38;5481095;32;33998;-84
2022/03/25 09:48:59;;;;;;;20.52;9.68;;;;;;;21.65;19.01;101376.19;5479437;32;34681;-84
2022/03/25 09:52:08;;;;;;;23.27;9.68;;;;;;;21.53;19.84;101376.19;5488116;32;34172;-84
2022/03/25 09:55:51;;;;;;;18.92;9.27;;;;;;;22.34;18.97;101369.66;5466676;32;34627;-84
2022/03/25 09:58:57;;;;;;;25.75;10.35;;;;;;;23.17;18.44;101367.25;5469710;32;33595;-83
2022/03/25 10:02:11;;;;;;;18.65;10.63;;;;;;;23.90;17.41;101360.78;5491998;32;34758;-86
2022/03/25 10:05:21;;;;;;;27.85;10.60;;;;;;;24.40;16.65;101369.84;5504760;32;35180;-88
2022/03/25 10:08:35;;;;;;;21.60;10.23;;;;;;;23.95;17.17;101366.66;5502315;32;34033;-85
2022/03/25 10:11:39;;;;;;;18.90;10.65;;;;;;;22.44;18.29;101356.19;5495783;32;34354;-86
2022/03/25 10:14:49;;;;;;;16.45;9.98;;;;;;;22.17;18.37;101352.16;5504765;32;35019;-84
2022/03/25 10:17:58;;;;;;;18.62;9.85;;;;;;;22.44;18.30;101348.09;5502113;32;34176;-85
2022/03/25 10:21:05;;;;;;;17.90;9.75;;;;;;;21.16;19.45;101345.94;5500537;32;34014;-84
2022/03/25 10:24:10;;;;;;;18.67;9.38;;;;;;;20.99;19.91;101351.69;5503730;32;34272;-82
2022/03/25 10:27:29;;;;;;;19.20;9.93;;;;;;;22.99;18.00;101333.53;5502618;32;35194;-85
2022/03/25 10:30:38;;;;;;;16.45;10.48;;;;;;;23.60;17.80;101340.91;5506166;32;35325;-82
2022/03/25 10:33:52;;;;;;;16.92;10.40;;;;;;;25.21;15.74;101324.25;5491798;32;34064;-80
2022/03/25 10:37:04;;;;;;;18.75;10.85;;;;;;;28.94;13.09;101319.09;5483058;32;34243;-82
2022/03/25 10:40:09;;;;;;;23.02;10.27;;;;;;;27.80;13.77;101321.50;5479218;32;35345;-82
2022/03/25 10:43:15;;;;;;;19.40;10.73;;;;;;;25.52;15.64;101313.09;5483255;32;34826;-84
2022/03/25 10:46:50;;;;;;;18.23;11.73;;;;;;;25.89;15.90;101316.75;5489755;32;34336;-81
2022/03/25 10:50:13;;;;;;;24.23;11.32;;;;;;;24.58;16.96;101311.16;5502834;32;33795;-87
2022/03/25 10:53:24;;;;;;;16.92;9.43;;;;;;;24.19;17.21;101306.62;5492534;32;33857;-84
2022/03/25 10:56:27;;;;;;;20.50;9.77;;;;;;;22.35;18.38;101311.94;5496749;32;35318;-82
2022/03/25 10:59:35;;;;;;;15.50;10.30;;;;;;;23.21;17.65;101310.00;5509799;32;34903;-84
2022/03/25 11:02:38;;;;;;;12.82;8.75;;;;;;;23.37;17.45;101316.75;5505565;32;35223;-84
2022/03/25 11:05:44;;;;;;;14.57;7.95;;;;;;;24.49;16.84;101302.03;5487683;32;33861;-85
2022/03/25 11:08:48;;;;;;;12.00;8.18;;;;;;;27.17;14.94;101307.31;5474014;32;35178;-85
2022/03/25 11:11:52;;;;;;;18.25;8.35;;;;;;;28.84;13.14;101291.97;5484113;32;34415;-84
2022/03/25 11:18:49;;;;;;;17.85;8.13;;;;;;;24.72;16.05;101296.28;5468909;32;34047;-84
2022/03/25 11:22:44;;;;;;;14.65;9.00;;;;;;;23.74;16.73;101290.91;5490751;32;34782;-86
2022/03/25 11:26:08;;;;;;;16.58;9.00;;;;;;;23.07;17.13;101294.97;5490229;32;35129;-89
2022/03/25 11:29:30;;;;;;;14.95;8.85;;;;;;;22.66;17.98;101288.66;5489569;32;35103;-84
2022/03/25 11:37:36;;;;;;;13.80;8.55;;;;;;;22.48;17.41;101281.97;5486680;32;35514;-85
2022/03/25 11:40:55;;;;;;;14.95;8.77;;;;;;;21.62;18.25;101279.28;5487762;32;35199;-87
2022/03/25 11:44:24;;;;;;;13.45;9.02;;;;;;;22.14;17.88;101273.22;5482891;32;34457;-88
2022/03/25 11:47:27;;;;;;;15.40;9.05;;;;;;;21.59;19.15;101280.38;5482450;32;34387;-83
2022/03/25 11:50:30;;;;;;;13.82;8.93;;;;;;;20.73;18.87;101270.13;5480120;32;34509;-82
2022/03/25 11:53:33;;;;;;;16.77;8.35;;;;;;;20.60;19.07;101267.50;5476774;32;34163;-82
2022/03/25 11:56:50;;;;;;;12.75;8.55;;;;;;;21.13;18.49;101264.25;5480874;32;34243;-83
2022/03/25 12:00:08;;;;;;;15.45;8.35;;;;;;;21.36;18.57;101253.44;5461695;32;35074;-85
2022/03/25 12:03:50;;;;;;;11.52;8.30;;;;;;;21.29;18.35;101254.94;5472552;32;35337;-84
2022/03/25 12:07:06;;;;;;;11.95;7.93;;;;;;;20.94;17.71;101253.22;5456556;32;34189;-84
2022/03/25 12:10:38;;;;;;;;;;;;;;;20.79;18.78;101255.28;5467761;32;35211;-84
2022/03/25 12:13:54;;;;;;;10.95;6.60;;;;;;;20.87;18.04;101244.78;5484714;32;35311;-88
2022/03/25 12:17:21;;;;;;;11.77;8.48;;;;;;;21.15;17.52;101245.25;5487110;32;34223;-86
2022/03/25 12:20:43;;;;;;;14.60;9.45;;;;;;;20.60;18.11;101240.56;5467281;32;32627;-84
2022/03/25 12:23:58;;;;;;;17.10;8.95;;;;;;;20.00;18.87;101240.66;5480489;32;34979;-85
2022/03/25 12:27:13;;;;;;;12.25;8.70;;;;;;;20.00;18.76;101238.84;5485046;32;34392;-83
2022/03/25 12:30:45;;;;;;;10.18;6.57;;;;;;;20.53;18.30;101226.72;5487974;32;34951;-84
2022/03/25 12:34:06;;;;;;;13.45;8.00;;;;;;;20.44;16.74;101222.94;5501481;32;35291;-84
2022/03/25 12:37:43;;;;;;;14.95;8.57;;;;;;;20.12;18.58;101222.72;5503829;32;35317;-84
2022/03/25 12:40:48;;;;;;;14.30;9.45;;;;;;;20.49;19.00;101221.69;5468190;32;34057;-88
2022/03/25 12:44:13;;;;;;;12.40;8.98;;;;;;;19.89;19.56;101215.41;5488229;32;35347;-85
2022/03/25 12:47:16;;;;;;;14.68;9.93;;;;;;;19.77;19.91;101213.66;5488199;32;35230;-84
2022/03/25 12:50:24;;;;;;;19.05;9.45;;;;;;;19.35;20.05;101219.41;5486858;32;35301;-83
2022/03/25 12:53:29;;;;;;;18.48;10.00;;;;;;;19.15;20.37;101216.34;5483380;32;34331;-82
2022/03/25 12:56:31;;;;;;;10.98;8.77;;;;;;;18.68;21.28;101213.41;5484590;32;34086;-83
2022/03/25 12:59:37;;;;;;;13.00;8.95;;;;;;;18.88;20.89;101213.81;5486102;32;33817;-83
2022/03/25 13:03:05;;;;;;;14.80;9.02;;;;;;;19.38;20.20;101212.00;5472914;32;33236;-84
2022/03/25 13:07:23;;;;;;;15.90;8.65;;;;;;;19.24;20.60;101213.00;5486144;32;35336;-84
2022/03/25 13:10:34;;;;;;;17.58;9.10;;;;;;;18.83;20.63;101208.78;5486737;32;35355;-87
2022/03/25 13:13:40;;;;;;;16.62;9.57;;;;;;;18.74;20.73;101212.97;5486033;32;34948;-88
2022/03/25 13:16:47;;;;;;;13.27;9.02;;;;;;;18.60;21.00;101205.88;5486155;32;34206;-86
2022/03/25 13:20:22;;;;;;;13.45;8.20;;;;;;;18.85;20.84;101196.06;5475498;32;33863;-84
2022/03/25 13:23:28;;;;;;;13.15;8.38;;;;;;;18.63;20.87;101196.75;5467422;32;35221;-84
2022/03/25 13:26:30;;;;;;;15.88;8.55;;;;;;;19.13;20.69;101188.72;5481391;32;35075;-83
2022/03/25 13:29:34;;;;;;;13.15;9.23;;;;;;;19.37;20.68;101193.28;5480458;32;34336;-82
2022/03/25 13:32:38;;;;;;;15.25;9.05;;;;;;;19.35;20.64;101193.37;5480886;32;34967;-82
2022/03/25 13:35:45;;;;;;;14.00;9.32;;;;;;;19.49;20.19;101189.66;5479385;32;34246;-83
2022/03/25 13:38:54;;;;;;;16.02;9.57;;;;;;;19.21;20.64;101186.31;5481847;32;34492;-81
2022/03/25 13:42:00;;;;;;;17.20;9.75;;;;;;;19.38;20.21;101182.41;5482884;32;34091;-82
2022/03/25 13:45:17;;;;;;;14.82;8.50;;;;;;;19.38;20.98;101179.72;5478290;32;34950;-82
2022/03/25 13:48:24;;;;;;;13.60;8.82;;;;;;;19.56;20.79;101183.81;5469003;32;34203;-80
2022/03/25 13:51:33;;;;;;;19.55;9.00;;;;;;;19.56;20.37;101170.38;5479258;32;34532;-80
2022/03/25 13:54:37;;;;;;;19.98;8.60;;;;;;;19.31;20.92;101174.91;5481888;32;33792;-81
2022/03/25 13:57:39;;;;;;;15.27;8.55;;;;;;;19.53;20.66;101176.84;5486784;32;34115;-82
2022/03/25 14:00:52;;;;;;;14.70;8.80;;;;;;;19.26;20.75;101168.03;5470236;32;34047;-81
2022/03/25 14:04:26;;;;;;;14.00;8.20;;;;;;;19.14;20.30;101174.31;5479855;32;33904;-81
2022/03/25 14:07:38;;;;;;;12.82;8.05;;;;;;;19.41;20.38;101181.28;5461375;32;34830;-81
2022/03/25 14:10:54;;;;;;;13.77;8.40;;;;;;;19.33;20.12;101175.63;5478100;32;34105;-81
2022/03/25 14:13:58;;;;;;;12.68;8.40;;;;;;;19.50;20.21;101169.84;5486744;32;35285;-81
2022/03/25 14:17:07;;;;;;;15.18;8.40;;;;;;;19.45;20.14;101166.66;5487663;32;34353;-81
2022/03/25 14:20:13;;;;;;;11.98;8.57;;;;;;;19.62;20.15;101165.37;5482962;32;34478;-81
2022/03/25 14:23:19;;;;;;;14.48;8.88;;;;;;;19.02;21.11;101165.28;5470929;32;36106;-82
2022/03/25 14:26:22;;;;;;;15.88;8.77;;;;;;;18.76;21.79;101162.66;5485262;32;34154;-82
2022/03/25 14:29:25;;;;;;;21.75;8.50;;;;;;;19.10;21.58;101170.13;5478844;32;33891;-82
2022/03/25 14:32:28;;;;;;;15.93;9.77;;;;;;;19.41;21.58;101161.63;5479020;32;34200;-81
2022/03/25 14:35:34;;;;;;;14.48;9.43;;;;;;;19.07;21.59;101163.13;5478947;32;33724;-82
2022/03/25 14:38:37;;;;;;;15.85;9.18;;;;;;;18.55;22.25;101160.53;5478033;32;34665;-81
2022/03/25 14:41:42;;;;;;;16.55;9.20;;;;;;;18.67;22.12;101166.00;5476779;32;33958;-82
2022/03/25 14:44:51;;;;;;;13.13;9.02;;;;;;;18.95;22.12;101164.88;5477031;32;33353;-81
2022/03/25 14:47:54;;;;;;;15.43;8.73;;;;;;;19.09;22.02;101158.53;5477428;32;33828;-82
2022/03/25 14:50:57;;;;;;;14.55;9.13;;;;;;;19.19;21.65;101157.81;5477411;32;34082;-82
2022/03/25 14:54:02;;;;;;;13.90;9.15;;;;;;;18.88;21.86;101150.16;5477950;32;33833;-81
2022/03/25 14:57:07;;;;;;;14.25;8.80;;;;;;;18.75;22.21;101146.66;5477559;32;34150;-81
2022/03/25 15:00:11;;;;;;;17.73;8.90;;;;;;;19.13;21.95;101154.63;5477313;32;34258;-81
2022/03/25 15:03:14;;;;;;;14.40;8.77;;;;;;;18.97;21.70;101149.47;5476908;32;34083;-81
2022/03/25 15:06:17;;;;;;;15.48;8.77;;;;;;;18.68;21.93;101148.91;5478287;32;34076;-82
2022/03/25 15:09:20;;;;;;;14.73;8.38;;;;;;;18.55;21.47;101154.28;5479759;32;34857;-82
2022/03/25 15:12:25;;;;;;;14.45;8.93;;;;;;;18.22;22.05;101145.84;5485727;32;34460;-81
2022/03/25 15:15:31;;;;;;;14.07;8.18;;;;;;;18.30;22.03;101142.59;5482120;32;34598;-81
2022/03/25 15:18:36;;;;;;;11.85;7.93;;;;;;;18.58;22.05;101146.03;5482546;32;34574;-80
2022/03/25 15:21:39;;;;;;;13.50;8.40;;;;;;;18.61;22.04;101140.47;5482810;32;34853;-80
2022/03/25 15:24:42;;;;;;;13.40;8.18;;;;;;;18.52;22.16;101143.78;5480037;32;34233;-80
2022/03/25 15:27:45;;;;;;;16.27;8.32;;;;;;;18.36;22.44;101141.34;5477516;32;33808;-81
2022/03/25 15:34:29;;;;;;;16.27;8.55;;;;;;;18.13;22.18;101136.62;5477648;32;34536;-81
2022/03/25 15:37:52;;;;;;;13.93;8.20;;;;;;;18.20;21.89;101146.94;5477504;32;33943;-81
2022/03/25 15:40:55;;;;;;;12.35;7.72;;;;;;;17.98;22.20;101151.06;5477323;32;34826;-81
2022/03/25 15:43:59;;;;;;;12.73;7.15;;;;;;;17.70;22.30;101143.06;5477248;32;34230;-81
2022/03/25 15:47:03;;;;;;;11.70;7.07;;;;;;;17.64;22.35;101151.53;5476780;32;33815;-80
2022/03/25 15:50:08;;;;;;;11.27;6.80;;;;;;;17.60;22.26;101153.56;5476927;32;34152;-81
2022/03/25 15:53:12;;;;;;;12.77;6.85;;;;;;;17.76;21.93;101155.22;5477156;32;34013;-81
2022/03/25 15:56:16;;;;;;;11.00;6.47;;;;;;;17.52;21.51;101147.88;5476799;32;34218;-81
2022/03/25 15:59:20;;;;;;;13.00;7.30;;;;;;;17.52;21.49;101151.38;5475965;32;34649;-81
2022/03/25 16:02:23;;;;;;;12.57;6.75;;;;;;;17.45;21.52;101152.75;5477722;32;33770;-80
2022/03/25 16:05:27;;;;;;;12.80;6.70;;;;;;;17.65;21.40;101153.25;5480985;32;34954;-81
2022/03/25 16:08:30;;;;;;;13.23;6.68;;;;;;;17.37;21.28;101150.62;5476863;32;34030;-81
2022/03/25 16:11:34;;;;;;;12.50;6.57;;;;;;;17.18;21.60;101155.44;5477021;32;34227;-81
2022/03/25 16:14:37;;;;;;;11.35;6.72;;;;;;;17.13;21.42;101153.06;5476706;32;34079;-81
2022/03/25 16:17:40;;;;;;;11.40;6.47;;;;;;;17.04;21.57;101151.84;5477419;32;34708;-81
2022/03/25 16:20:43;;;;;;;10.05;6.72;;;;;;;16.97;21.63;101155.84;5477202;32;34522;-81
2022/03/25 16:23:47;;;;;;;12.45;6.37;;;;;;;16.84;21.93;101156.66;5477249;32;33886;-81
2022/03/25 16:26:50;;;;;;;8.63;6.25;;;;;;;16.88;22.06;101159.13;5474374;32;33827;-81
2022/03/25 16:29:53;;;;;;;10.90;6.15;;;;;;;16.69;22.19;101161.16;5459077;32;34199;-83
2022/03/25 16:33:18;;;;;;;8.38;5.93;;;;;;;16.49;22.63;101165.09;5464222;32;34153;-83
2022/03/25 16:36:22;;;;;;;9.98;6.22;;;;;;;16.32;22.85;101160.78;5474940;32;34255;-83
2022/03/25 16:39:25;;;;;;;13.88;6.82;;;;;;;16.21;23.07;101158.78;5481977;32;33966;-84
2022/03/25 16:42:49;;;;;;;11.18;6.00;;;;;;;16.21;22.48;101160.56;5483810;32;35186;-88
2022/03/25 16:45:54;;;;;;;11.18;6.78;;;;;;;16.16;22.49;101161.72;5483626;32;34485;-89
